createdAt,value
2022-10-25T00:02:16.049Z,4.50
2022-10-25T00:05:30.842Z,5.35
2022-10-25T00:08:30.865Z,4.30
2022-10-25T00:11:57.877Z,5.50
2022-10-25T00:15:11.881Z,5.65
2022-10-25T00:18:27.894Z,4.80
2022-10-25T00:21:45.928Z,5.30
2022-10-25T00:24:58.982Z,5.75
2022-10-25T00:28:04.941Z,4.23
2022-10-25T00:31:33.906Z,5.07
2022-10-25T00:34:36.974Z,4.10
2022-10-25T00:37:51.927Z,4.97
2022-10-25T00:40:51.970Z,5.25
2022-10-25T00:44:24.968Z,4.45
2022-10-25T00:47:56.036Z,4.67
2022-10-25T00:51:21.014Z,4.50
2022-10-25T00:54:38.989Z,5.40
2022-10-25T00:58:10.011Z,5.10
2022-10-25T01:01:25.127Z,5.67
2022-10-25T01:04:49.033Z,4.60
2022-10-25T01:08:06.119Z,4.67
2022-10-25T01:11:36.044Z,4.83
2022-10-25T01:14:48.092Z,4.73
2022-10-25T01:18:18.085Z,4.93
2022-10-25T01:21:30.749Z,4.50
2022-10-25T01:25:14.071Z,4.60
2022-10-25T01:28:31.158Z,4.20
2022-10-25T01:32:04.095Z,4.67
2022-10-25T01:35:16.145Z,4.37
2022-10-25T01:38:50.289Z,4.30
2022-10-25T01:42:09.151Z,4.80
2022-10-25T01:45:36.149Z,4.40
2022-10-25T01:48:55.150Z,4.53
2022-10-25T01:52:13.241Z,3.83
2022-10-25T01:55:25.208Z,4.17
2022-10-25T01:58:54.234Z,3.95
2022-10-25T02:02:09.206Z,4.07
2022-10-25T02:05:35.253Z,3.90
2022-10-25T02:09:02.227Z,3.73
2022-10-25T02:12:20.248Z,3.73
2022-10-25T02:15:47.259Z,3.90
2022-10-25T02:18:59.342Z,3.73
2022-10-25T02:22:28.268Z,4.37
2022-10-25T02:25:43.311Z,3.63
2022-10-25T02:29:10.296Z,3.40
2022-10-25T02:32:25.297Z,4.20
2022-10-25T02:35:41.295Z,3.93
2022-10-25T02:38:55.318Z,3.85
2022-10-25T02:42:10.322Z,4.53
2022-10-25T02:45:13.370Z,6.00
2022-10-25T02:48:29.373Z,5.63
2022-10-25T02:51:47.423Z,3.97
2022-10-25T02:55:16.374Z,4.60
2022-10-25T02:58:31.443Z,4.90
2022-10-25T03:01:49.476Z,5.00
2022-10-25T03:05:01.432Z,5.20
2022-10-25T03:08:18.547Z,5.05
2022-10-25T03:11:35.439Z,5.13
2022-10-25T03:14:47.466Z,4.50
2022-10-25T03:17:50.595Z,5.35
2022-10-25T03:21:02.414Z,4.37
2022-10-25T03:24:08.480Z,5.50
2022-10-25T03:27:41.466Z,4.37
2022-10-25T03:30:56.550Z,4.47
2022-10-25T03:34:09.571Z,5.00
2022-10-25T03:37:24.515Z,4.90
2022-10-25T03:40:40.519Z,5.00
2022-10-25T03:43:58.503Z,5.17
2022-10-25T03:47:11.531Z,4.80
2022-10-25T03:50:14.549Z,5.05
2022-10-25T03:53:29.612Z,5.17
2022-10-25T03:56:32.554Z,5.50
2022-10-25T04:00:02.571Z,4.77
2022-10-25T04:03:26.605Z,4.87
2022-10-25T04:06:29.592Z,5.93
2022-10-25T04:09:41.610Z,5.00
2022-10-25T04:12:47.675Z,5.23
2022-10-25T04:16:16.968Z,5.40
2022-10-25T04:19:16.619Z,4.23
2022-10-25T04:22:31.679Z,5.00
2022-10-25T04:25:46.689Z,4.87
2022-10-25T04:29:13.671Z,4.35
2022-10-25T04:32:30.754Z,4.50
2022-10-25T04:35:46.665Z,4.40
2022-10-25T04:38:50.728Z,4.60
2022-10-25T04:42:05.768Z,5.65
2022-10-25T04:45:11.882Z,4.83
2022-10-25T04:48:40.768Z,4.87
2022-10-25T04:51:58.662Z,4.70
2022-10-25T04:55:13.749Z,4.37
2022-10-25T04:58:13.776Z,5.25
2022-10-25T05:01:40.904Z,4.50
2022-10-25T05:04:57.797Z,6.10
2022-10-25T05:08:09.787Z,5.13
2022-10-25T05:11:09.814Z,5.47
2022-10-25T05:14:39.816Z,4.60
2022-10-25T05:17:45.825Z,4.80
2022-10-25T05:21:17.892Z,4.67
2022-10-25T05:24:21.898Z,4.83
2022-10-25T05:27:33.838Z,4.37
2022-10-25T05:30:36.897Z,4.40
2022-10-25T05:34:04.855Z,4.73
2022-10-25T05:37:21.952Z,4.50
2022-10-25T05:40:34.882Z,5.30
2022-10-25T05:43:46.931Z,4.85
2022-10-25T05:47:05.890Z,4.13
2022-10-25T05:50:09.950Z,4.50
2022-10-25T05:53:39.944Z,4.75
2022-10-25T05:56:57.952Z,3.95
2022-10-25T06:00:21.989Z,4.37
2022-10-25T06:03:33.998Z,4.10
2022-10-25T06:06:48.977Z,4.13
2022-10-25T06:10:23.983Z,4.03
2022-10-25T06:13:23.980Z,4.13
2022-10-25T06:16:38.994Z,4.00
2022-10-25T06:19:39.012Z,4.05
2022-10-25T06:22:52.003Z,4.25
2022-10-25T06:26:09.084Z,4.63
2022-10-25T06:29:36.027Z,3.95
2022-10-25T06:32:36.032Z,4.27
2022-10-25T06:35:48.078Z,4.17
2022-10-25T06:39:07.081Z,3.85
2022-10-25T06:42:36.099Z,4.03
2022-10-25T06:45:39.062Z,4.27
2022-10-25T06:48:54.088Z,3.70
2022-10-25T06:51:58.110Z,4.00
2022-10-25T06:55:13.090Z,4.80
2022-10-25T06:58:30.134Z,4.53
2022-10-25T07:01:46.225Z,4.43
2022-10-25T07:04:46.167Z,3.40
2022-10-25T07:08:01.204Z,4.00
2022-10-25T07:11:20.175Z,3.97
2022-10-25T07:14:50.160Z,3.67
2022-10-25T07:17:53.150Z,3.77
2022-10-25T07:21:23.197Z,4.40
2022-10-25T07:24:38.228Z,3.70
2022-10-25T07:27:56.260Z,3.90
2022-10-25T07:31:12.271Z,4.75
2022-10-25T07:34:36.253Z,3.93
2022-10-25T07:37:36.236Z,4.33
2022-10-25T07:40:48.273Z,4.60
2022-10-25T07:43:54.296Z,4.10
2022-10-25T07:47:19.302Z,5.05
2022-10-25T07:50:20.485Z,5.00
2022-10-25T07:53:47.287Z,4.00
2022-10-25T07:56:50.325Z,4.50
2022-10-25T08:00:05.364Z,4.45
2022-10-25T08:03:34.343Z,4.50
2022-10-25T08:06:52.328Z,5.40
2022-10-25T08:10:07.404Z,5.25
2022-10-25T08:13:25.557Z,4.83
2022-10-25T08:16:37.375Z,4.30
2022-10-25T08:19:54.346Z,4.10
2022-10-25T08:23:22.405Z,4.80
2022-10-25T08:26:34.367Z,4.87
2022-10-25T08:29:41.395Z,4.65
2022-10-25T08:32:41.599Z,5.03
2022-10-25T08:36:10.444Z,4.53
2022-10-25T08:39:11.432Z,5.03
2022-10-25T08:42:40.471Z,4.57
2022-10-25T08:45:53.389Z,5.07
2022-10-25T08:49:25.585Z,4.80
2022-10-25T08:52:39.494Z,4.40
2022-10-25T08:56:22.802Z,4.27
2022-10-25T08:59:22.506Z,5.43
2022-10-25T09:02:48.531Z,4.50
2022-10-25T09:06:03.564Z,4.90
2022-10-25T09:09:32.535Z,4.80
2022-10-25T09:12:47.538Z,5.57
2022-10-25T09:16:15.611Z,4.43
2022-10-25T09:19:33.599Z,4.57
2022-10-25T09:22:58.602Z,4.25
2022-10-25T09:26:16.828Z,5.33
2022-10-25T09:29:45.756Z,4.20
2022-10-25T09:33:06.660Z,4.57
2022-10-25T09:36:36.613Z,5.10
2022-10-25T09:39:48.628Z,4.60
2022-10-25T09:43:21.604Z,4.55
2022-10-25T09:46:36.622Z,4.55
2022-10-25T09:50:04.693Z,4.33
2022-10-25T09:53:24.249Z,4.20
2022-10-25T09:56:50.638Z,3.80
2022-10-25T10:00:03.697Z,4.47
2022-10-25T10:03:15.702Z,4.25
2022-10-25T10:06:31.758Z,4.20
2022-10-25T10:09:58.712Z,3.70
2022-10-25T10:13:10.763Z,3.67
2022-10-25T10:16:43.715Z,3.70
2022-10-25T10:19:46.804Z,3.20
2022-10-25T10:23:14.756Z,3.20
2022-10-25T10:26:33.781Z,3.15
2022-10-25T10:29:58.768Z,2.95
2022-10-25T10:33:12.814Z,2.80
2022-10-25T10:36:49.820Z,3.00
2022-10-25T10:40:11.833Z,3.40
2022-10-25T10:43:49.777Z,3.03
2022-10-25T10:47:08.927Z,2.85
2022-10-25T10:50:40.052Z,2.37
2022-10-25T10:53:53.853Z,2.80
2022-10-25T10:57:23.852Z,2.33
2022-10-25T11:00:37.930Z,2.33
2022-10-25T11:04:14.882Z,2.70
2022-10-25T11:07:38.891Z,2.20
2022-10-25T11:10:54.893Z,2.25
2022-10-25T11:14:07.928Z,2.50
2022-10-25T11:17:36.924Z,2.30
2022-10-25T11:20:52.197Z,2.03
2022-10-25T11:24:26.916Z,2.70
2022-10-25T11:27:42.942Z,1.97
2022-10-25T11:31:10.960Z,1.87
2022-10-25T11:34:31.963Z,2.20
2022-10-25T11:37:58.989Z,2.17
2022-10-25T11:41:12.995Z,2.17
2022-10-25T11:44:46.418Z,2.05
2022-10-25T11:48:01.037Z,2.25
2022-10-25T11:51:26.075Z,2.10
2022-10-25T11:54:42.198Z,1.73
2022-10-25T11:58:15.010Z,1.67
2022-10-25T12:01:32.173Z,2.30
2022-10-25T12:05:14.085Z,1.70
2022-10-25T12:08:32.090Z,1.67
2022-10-25T12:12:02.114Z,1.93
2022-10-25T12:15:19.088Z,2.30
2022-10-25T12:18:49.143Z,1.60
2022-10-25T12:22:03.221Z,2.17
2022-10-25T12:25:33.149Z,1.60
2022-10-25T12:28:46.117Z,1.87
2022-10-25T12:32:19.165Z,1.90
2022-10-25T12:35:35.248Z,1.75
2022-10-25T12:39:00.142Z,1.80
2022-10-25T12:42:15.185Z,1.70
2022-10-25T12:45:55.977Z,2.10
2022-10-25T12:49:13.212Z,1.70
2022-10-25T12:52:42.184Z,2.10
2022-10-25T12:55:59.208Z,1.90
2022-10-25T12:59:25.246Z,1.80
2022-10-25T13:02:43.284Z,1.63
2022-10-25T13:06:18.265Z,2.00
2022-10-25T13:09:36.298Z,1.50
2022-10-25T13:12:51.280Z,1.90
2022-10-25T13:16:06.332Z,1.57
2022-10-25T13:19:53.611Z,1.60
2022-10-25T13:22:56.348Z,1.57
2022-10-25T13:26:27.298Z,1.60
2022-10-25T13:29:45.305Z,1.70
2022-10-25T13:33:18.341Z,2.03
2022-10-25T13:36:21.333Z,1.87
2022-10-25T13:39:53.348Z,2.17
2022-10-25T13:43:11.396Z,1.80
2022-10-25T13:46:38.427Z,2.30
2022-10-25T13:49:54.368Z,1.93
2022-10-25T13:53:22.390Z,1.73
2022-10-25T13:56:38.414Z,2.40
2022-10-25T14:03:48.407Z,1.60
2022-10-25T14:07:00.416Z,2.00
2022-10-25T14:10:25.435Z,2.10
2022-10-25T14:13:42.425Z,1.60
2022-10-25T14:17:06.660Z,1.70
2022-10-25T14:20:21.415Z,2.20
2022-10-25T14:23:48.449Z,2.70
2022-10-25T14:26:48.539Z,1.90
2022-10-25T14:30:18.594Z,1.70
2022-10-25T14:33:41.931Z,2.10
2022-10-25T14:36:53.555Z,2.23
2022-10-25T14:40:15.538Z,2.55
2022-10-25T14:43:49.517Z,2.23
2022-10-25T14:47:02.725Z,2.37
2022-10-25T14:50:31.551Z,2.20
2022-10-25T14:53:47.183Z,1.73
2022-10-25T14:57:14.604Z,1.77
2022-10-25T15:00:26.646Z,2.40
2022-10-25T15:03:52.602Z,2.13
2022-10-25T15:07:10.656Z,2.97
2022-10-25T15:10:44.645Z,2.93
2022-10-25T15:13:56.631Z,2.20
2022-10-25T15:17:29.670Z,1.80
2022-10-25T15:20:55.383Z,2.03
2022-10-25T15:24:29.669Z,2.23
2022-10-25T15:27:49.667Z,2.95
2022-10-25T15:31:26.674Z,3.20
2022-10-25T15:34:26.681Z,2.77
2022-10-25T15:37:52.759Z,2.20
2022-10-25T15:41:10.765Z,2.60
2022-10-25T15:44:25.818Z,2.35
2022-10-25T15:47:53.754Z,2.67
2022-10-25T15:51:27.480Z,2.70
2022-10-25T15:54:39.756Z,2.40
2022-10-25T15:57:51.810Z,2.80
2022-10-25T16:01:06.938Z,2.70
2022-10-25T16:04:37.774Z,2.97
2022-10-25T16:07:38.923Z,3.40
2022-10-25T16:11:10.833Z,2.60
2022-10-25T16:14:24.863Z,2.50
2022-10-25T16:17:39.826Z,2.37
2022-10-25T16:20:57.872Z,2.30
2022-10-25T16:24:12.904Z,2.43
2022-10-25T16:27:29.906Z,2.03
2022-10-25T16:30:56.997Z,2.20
2022-10-25T16:33:56.883Z,3.33
2022-10-25T16:37:12.167Z,2.33
2022-10-25T16:40:14.919Z,2.40
2022-10-25T16:43:48.415Z,2.73
2022-10-25T16:46:49.942Z,2.40
2022-10-25T16:50:13.944Z,2.30
2022-10-25T16:53:37.957Z,2.50
2022-10-25T16:56:50.067Z,2.30
2022-10-25T17:00:06.996Z,2.60
2022-10-25T17:03:19.975Z,2.57
2022-10-25T17:06:40.343Z,2.40
2022-10-25T17:09:45.973Z,2.40
2022-10-25T17:12:46.246Z,2.35
2022-10-25T17:16:15.037Z,2.10
2022-10-25T17:19:16.080Z,2.30
2022-10-25T17:22:27.998Z,2.60
2022-10-25T17:25:40.151Z,2.50
2022-10-25T17:29:07.033Z,2.45
2022-10-25T17:32:21.081Z,2.20
2022-10-25T17:35:36.058Z,2.20
2022-10-25T17:38:42.111Z,2.47
2022-10-25T17:41:54.103Z,2.33
2022-10-25T17:44:57.154Z,2.37
2022-10-25T17:48:26.116Z,2.90
2022-10-25T17:51:38.186Z,2.97
2022-10-25T17:54:53.160Z,2.60
2022-10-25T17:57:53.210Z,2.57
2022-10-25T18:01:06.257Z,2.23
2022-10-25T18:04:53.395Z,2.33
2022-10-25T18:07:39.203Z,2.73
2022-10-25T18:10:56.222Z,2.40
2022-10-25T18:13:59.377Z,2.90
2022-10-25T18:17:15.207Z,2.87
2022-10-25T18:20:29.229Z,2.90
2022-10-25T18:23:45.245Z,2.67
2022-10-25T18:26:57.258Z,2.67
2022-10-25T18:30:28.265Z,2.70
2022-10-25T18:33:31.247Z,2.60
2022-10-25T18:37:01.356Z,2.70
2022-10-25T18:40:04.309Z,2.63
2022-10-25T18:43:22.321Z,2.57
2022-10-25T18:46:34.350Z,2.50
2022-10-25T18:49:50.314Z,2.57
2022-10-25T18:53:04.412Z,2.20
2022-10-25T18:56:32.329Z,2.35
2022-10-25T18:59:32.333Z,2.67
2022-10-25T19:02:45.434Z,2.50
2022-10-25T19:05:49.394Z,2.43
2022-10-25T19:09:18.377Z,2.30
2022-10-25T19:12:19.469Z,2.30
2022-10-25T19:15:31.423Z,2.63
2022-10-25T19:18:46.375Z,2.57
2022-10-25T19:22:02.417Z,2.00
2022-10-25T19:25:23.862Z,2.20
2022-10-25T19:28:46.447Z,2.20
2022-10-25T19:32:01.446Z,2.35
2022-10-25T19:35:28.461Z,2.20
2022-10-25T19:38:28.477Z,2.50
2022-10-25T19:42:00.582Z,1.97
2022-10-25T19:45:04.497Z,2.40
2022-10-25T19:48:17.526Z,2.40
2022-10-25T19:51:35.472Z,2.37
2022-10-25T19:54:54.560Z,2.27
2022-10-25T19:58:11.515Z,1.90
2022-10-25T20:01:41.668Z,2.70
2022-10-25T20:04:59.642Z,2.37
2022-10-25T20:08:02.671Z,2.00
2022-10-25T20:11:15.581Z,2.37
2022-10-25T20:14:32.594Z,2.30
2022-10-25T20:17:48.829Z,2.03
2022-10-25T20:20:52.965Z,2.20
2022-10-25T20:24:20.627Z,2.33
2022-10-25T20:27:23.599Z,2.90
2022-10-25T20:34:00.683Z,2.13
2022-10-25T20:37:27.707Z,2.15
2022-10-25T20:40:33.402Z,2.47
2022-10-25T20:44:04.439Z,2.50
2022-10-25T20:47:11.343Z,2.63
2022-10-25T20:50:52.348Z,2.37
2022-10-25T20:54:11.366Z,2.50
2022-10-25T20:57:36.427Z,2.35
2022-10-25T21:00:42.430Z,2.00
2022-10-25T21:04:08.473Z,2.00
2022-10-25T21:07:28.577Z,2.30
2022-10-25T21:10:49.501Z,1.90
2022-10-25T21:14:08.792Z,2.50
2022-10-25T21:17:35.721Z,2.43
2022-10-25T21:21:24.603Z,2.50
2022-10-25T21:25:05.401Z,2.43
2022-10-25T21:28:31.055Z,2.20
2022-10-25T21:32:09.441Z,2.33
2022-10-25T21:35:58.617Z,3.17
2022-10-25T21:39:10.592Z,2.30
2022-10-25T21:42:34.562Z,2.20
2022-10-25T21:46:12.545Z,2.30
2022-10-25T21:49:19.555Z,2.53
2022-10-25T21:52:36.740Z,2.53
2022-10-25T21:55:43.672Z,2.20
2022-10-25T21:59:24.558Z,2.60
2022-10-25T22:02:31.858Z,2.10
2022-10-25T22:05:48.679Z,2.40
2022-10-25T22:09:10.579Z,2.87
2022-10-25T22:12:34.672Z,2.53
2022-10-25T22:15:57.666Z,2.70
2022-10-25T22:19:25.607Z,2.70
2022-10-25T22:22:29.697Z,2.53
2022-10-25T22:25:51.831Z,2.97
2022-10-25T22:29:07.683Z,2.53
2022-10-25T22:32:41.798Z,2.77
2022-10-25T22:35:45.841Z,2.60
2022-10-25T22:39:05.657Z,2.57
2022-10-25T22:42:12.718Z,2.40
2022-10-25T22:45:31.744Z,3.30
2022-10-25T22:48:52.787Z,2.80
2022-10-25T22:52:11.677Z,2.47
2022-10-25T22:55:30.734Z,2.83
2022-10-25T22:59:04.814Z,2.77
2022-10-25T23:02:08.730Z,2.70
2022-10-25T23:05:44.825Z,2.70
2022-10-25T23:09:03.802Z,3.05
2022-10-25T23:12:25.887Z,3.10
2022-10-25T23:15:32.760Z,2.70
2022-10-25T23:19:06.773Z,3.20
2022-10-25T23:22:26.878Z,2.57
2022-10-25T23:25:59.940Z,3.10
2022-10-25T23:29:22.028Z,2.93
2022-10-25T23:32:43.844Z,3.30
2022-10-25T23:36:08.785Z,3.10
2022-10-25T23:39:40.893Z,2.90
2022-10-25T23:42:48.119Z,2.80
2022-10-25T23:46:06.953Z,2.70
2022-10-25T23:49:16.911Z,2.83
2022-10-25T23:52:38.940Z,2.87
2022-10-25T23:55:59.306Z,2.80
2022-10-25T23:59:27.994Z,3.63
